createdAt,value
2019-03-23T00:00:51.078Z,1.10
2019-03-23T00:03:22.378Z,1.33
2019-03-23T00:05:53.960Z,1.20
2019-03-23T00:08:25.443Z,1.10
2019-03-23T00:10:56.582Z,1.10
2019-03-23T00:13:29.211Z,1.10
2019-03-23T00:16:01.718Z,1.50
2019-03-23T00:18:32.837Z,1.30
2019-03-23T00:21:04.298Z,1.30
2019-03-23T00:23:35.419Z,1.53
2019-03-23T00:26:06.778Z,1.40
2019-03-23T00:28:38.248Z,1.13
2019-03-23T00:31:09.695Z,1.10
2019-03-23T00:33:40.940Z,1.30
2019-03-23T00:36:12.991Z,1.73
2019-03-23T00:38:44.393Z,1.37
2019-03-23T00:41:15.550Z,1.30
2019-03-23T00:43:47.022Z,1.60
2019-03-23T00:46:18.686Z,1.50
2019-03-23T00:48:49.885Z,1.40
2019-03-23T00:51:21.037Z,1.60
2019-03-23T00:53:52.442Z,1.20
2019-03-23T00:56:23.830Z,1.30
2019-03-23T00:58:55.938Z,1.43
2019-03-23T01:01:27.642Z,1.70
2019-03-23T01:03:58.967Z,1.63
2019-03-23T01:06:30.854Z,1.63
2019-03-23T01:09:02.418Z,1.67
2019-03-23T01:11:33.878Z,1.50
2019-03-23T01:14:05.436Z,1.20
2019-03-23T01:16:36.468Z,1.30
2019-03-23T01:19:07.922Z,1.50
2019-03-23T01:21:39.105Z,1.50
2019-03-23T01:24:10.383Z,1.50
2019-03-23T01:26:42.180Z,1.50
2019-03-23T01:29:13.519Z,1.40
2019-03-23T01:31:44.815Z,1.47
2019-03-23T01:34:16.260Z,1.50
2019-03-23T01:36:47.763Z,1.30
2019-03-23T01:39:20.294Z,1.63
2019-03-23T01:41:51.793Z,1.60
2019-03-23T01:44:24.816Z,1.40
2019-03-23T01:46:56.255Z,1.60
2019-03-23T01:49:27.810Z,1.80
2019-03-23T01:51:59.227Z,1.60
2019-03-23T01:54:30.678Z,1.47
2019-03-23T01:57:01.858Z,1.50
2019-03-23T01:59:35.040Z,1.70
2019-03-23T02:02:06.593Z,1.70
2019-03-23T02:04:37.770Z,1.50
2019-03-23T02:07:13.784Z,1.13
2019-03-23T02:09:42.450Z,1.33
2019-03-23T02:12:14.134Z,1.30
2019-03-23T02:14:46.038Z,1.50
2019-03-23T02:17:17.431Z,1.70
2019-03-23T02:19:48.679Z,1.80
2019-03-23T02:22:19.908Z,1.83
2019-03-23T02:24:52.136Z,1.60
2019-03-23T02:27:23.263Z,1.33
2019-03-23T02:29:54.907Z,1.60
2019-03-23T02:32:26.156Z,1.70
2019-03-23T02:34:57.327Z,1.80
2019-03-23T02:37:28.760Z,1.60
2019-03-23T02:40:01.127Z,1.90
2019-03-23T02:42:32.593Z,1.80
2019-03-23T02:45:04.385Z,1.63
2019-03-23T02:47:35.772Z,1.80
2019-03-23T02:50:08.434Z,1.97
2019-03-23T02:52:39.849Z,2.00
2019-03-23T02:55:11.581Z,1.60
2019-03-23T02:57:43.105Z,1.63
2019-03-23T03:00:14.986Z,1.60
2019-03-23T03:02:46.336Z,1.40
2019-03-23T03:05:18.107Z,1.60
2019-03-23T03:07:49.628Z,1.73
2019-03-23T03:10:41.476Z,1.97
2019-03-23T03:13:13.338Z,2.10
2019-03-23T03:15:44.632Z,1.67
2019-03-23T03:18:15.930Z,1.87
2019-03-23T03:20:47.099Z,1.63
2019-03-23T03:23:18.566Z,1.80
2019-03-23T03:25:50.068Z,1.97
2019-03-23T03:28:21.767Z,1.77
2019-03-23T03:30:53.175Z,1.87
2019-03-23T03:33:24.470Z,1.80
2019-03-23T03:35:55.791Z,1.87
2019-03-23T03:38:26.993Z,2.10
2019-03-23T03:40:58.339Z,2.20
2019-03-23T03:43:29.534Z,2.00
2019-03-23T03:46:01.014Z,2.10
2019-03-23T03:48:32.952Z,2.00
2019-03-23T03:51:04.230Z,2.17
2019-03-23T03:53:36.766Z,2.00
2019-03-23T03:56:07.770Z,2.10
2019-03-23T03:58:39.145Z,1.90
2019-03-23T04:01:10.343Z,2.53
2019-03-23T04:03:41.961Z,1.97
2019-03-23T04:06:13.535Z,2.10
2019-03-23T04:08:44.705Z,2.30
2019-03-23T04:11:16.187Z,2.33
2019-03-23T04:13:47.552Z,2.10
2019-03-23T04:16:19.007Z,2.33
2019-03-23T04:18:50.454Z,2.80
2019-03-23T04:21:21.633Z,2.50
2019-03-23T04:23:54.188Z,2.97
2019-03-23T04:26:25.473Z,2.50
2019-03-23T04:28:56.966Z,2.77
2019-03-23T04:31:29.580Z,2.47
2019-03-23T04:34:00.771Z,2.33
2019-03-23T04:36:32.404Z,2.63
2019-03-23T04:39:05.286Z,2.70
2019-03-23T04:41:36.644Z,2.73
2019-03-23T04:44:07.950Z,3.10
2019-03-23T04:46:39.458Z,2.80
2019-03-23T04:49:10.662Z,2.43
2019-03-23T04:51:42.094Z,2.90
2019-03-23T04:54:13.262Z,2.60
2019-03-23T04:56:44.473Z,3.00
2019-03-23T04:59:15.872Z,2.93
2019-03-23T05:01:47.296Z,2.63
2019-03-23T05:04:18.982Z,2.80
2019-03-23T05:06:50.712Z,3.40
2019-03-23T05:09:22.578Z,3.10
2019-03-23T05:11:54.012Z,3.10
2019-03-23T05:14:25.304Z,3.63
2019-03-23T05:16:56.656Z,3.20
2019-03-23T05:19:28.062Z,3.67
2019-03-23T05:21:59.315Z,3.20
2019-03-23T05:24:30.698Z,4.03
2019-03-23T05:27:02.362Z,4.10
2019-03-23T05:29:35.623Z,3.57
2019-03-23T05:32:06.955Z,3.77
2019-03-23T05:34:38.331Z,3.90
2019-03-23T05:37:09.787Z,3.77
2019-03-23T05:39:41.626Z,4.00
2019-03-23T05:42:13.914Z,4.77
2019-03-23T05:44:45.546Z,4.87
2019-03-23T05:47:17.154Z,4.50
2019-03-23T05:49:48.550Z,5.00
2019-03-23T05:52:20.650Z,5.40
2019-03-23T05:54:53.726Z,4.97
2019-03-23T05:57:25.086Z,5.37
2019-03-23T05:59:56.499Z,5.57
2019-03-23T06:02:27.998Z,5.37
2019-03-23T06:04:59.276Z,5.23
2019-03-23T06:07:30.890Z,5.50
2019-03-23T06:10:03.237Z,5.23
2019-03-23T06:12:34.998Z,5.20
2019-03-23T06:15:07.398Z,4.67
2019-03-23T06:17:40.623Z,5.40
2019-03-23T06:20:12.419Z,5.67
2019-03-23T06:22:44.002Z,5.30
2019-03-23T06:25:17.170Z,5.63
2019-03-23T06:27:48.415Z,5.77
2019-03-23T06:30:19.978Z,5.60
2019-03-23T06:32:51.518Z,6.63
2019-03-23T06:35:22.698Z,6.80
2019-03-23T06:37:54.118Z,7.83
2019-03-23T06:40:26.815Z,8.43
2019-03-23T06:42:59.880Z,9.13
2019-03-23T06:45:31.544Z,9.67
2019-03-23T06:48:03.346Z,9.80
2019-03-23T06:50:34.537Z,11.13
2019-03-23T06:53:07.135Z,10.10
2019-03-23T06:55:38.850Z,10.43
2019-03-23T06:58:10.565Z,10.50
2019-03-23T07:00:42.031Z,10.47
2019-03-23T07:03:13.504Z,11.30
2019-03-23T07:05:44.733Z,10.50
2019-03-23T07:08:16.190Z,10.63
2019-03-23T07:10:47.436Z,10.90
2019-03-23T07:13:20.917Z,10.70
2019-03-23T07:15:52.666Z,10.70
2019-03-23T07:18:23.864Z,11.17
2019-03-23T07:20:55.222Z,11.07
2019-03-23T07:23:26.494Z,10.70
2019-03-23T07:25:57.955Z,10.27
2019-03-23T07:28:29.511Z,10.77
2019-03-23T07:31:01.102Z,11.10
2019-03-23T07:33:32.307Z,10.33
2019-03-23T07:36:03.638Z,10.40
2019-03-23T07:38:34.918Z,10.17
2019-03-23T07:41:06.256Z,10.50
2019-03-23T07:43:37.932Z,10.57
2019-03-23T07:46:09.732Z,10.77
2019-03-23T07:48:42.675Z,10.30
2019-03-23T07:51:13.950Z,10.30
2019-03-23T07:53:45.508Z,10.20
2019-03-23T07:56:16.522Z,9.40
2019-03-23T07:58:48.157Z,9.20
2019-03-23T08:01:19.250Z,9.60
2019-03-23T08:03:50.755Z,9.03
2019-03-23T08:06:22.322Z,9.00
2019-03-23T08:08:53.462Z,7.70
2019-03-23T08:11:24.930Z,8.10
2019-03-23T08:13:56.370Z,8.03
2019-03-23T08:16:27.535Z,7.07
2019-03-23T08:18:59.169Z,6.57
2019-03-23T08:21:30.763Z,6.40
2019-03-23T08:24:02.533Z,5.10
2019-03-23T08:26:34.444Z,5.30
2019-03-23T08:29:06.388Z,4.73
2019-03-23T08:31:38.174Z,5.20
2019-03-23T08:34:09.813Z,4.63
2019-03-23T08:36:41.110Z,5.33
2019-03-23T08:39:12.619Z,4.47
2019-03-23T08:41:44.235Z,4.63
2019-03-23T08:44:15.379Z,4.27
2019-03-23T08:46:46.754Z,4.23
2019-03-23T08:49:18.370Z,4.47
2019-03-23T08:51:50.038Z,4.17
2019-03-23T08:54:21.478Z,3.57
2019-03-23T08:56:52.807Z,3.73
2019-03-23T08:59:24.116Z,3.27
2019-03-23T09:01:56.551Z,3.90
2019-03-23T09:04:27.891Z,3.60
2019-03-23T09:07:00.910Z,3.70
2019-03-23T09:09:32.720Z,3.53
2019-03-23T09:12:04.636Z,4.13
2019-03-23T09:14:35.826Z,3.23
2019-03-23T09:17:07.595Z,3.87
2019-03-23T09:19:39.118Z,3.40
2019-03-23T09:22:10.458Z,3.20
2019-03-23T09:24:42.128Z,3.70
2019-03-23T09:27:13.474Z,2.73
2019-03-23T09:29:45.328Z,3.10
2019-03-23T09:32:16.929Z,2.73
2019-03-23T09:34:48.343Z,2.27
2019-03-23T09:37:19.528Z,2.43
2019-03-23T09:39:51.162Z,2.10
2019-03-23T09:42:22.722Z,2.37
2019-03-23T09:44:54.132Z,2.10
2019-03-23T09:47:25.611Z,3.27
2019-03-23T09:49:57.075Z,2.67
2019-03-23T09:52:28.511Z,2.27
2019-03-23T09:54:59.736Z,2.50
2019-03-23T09:57:31.120Z,2.20
2019-03-23T10:00:02.298Z,2.13
2019-03-23T10:02:33.711Z,2.57
2019-03-23T10:05:06.222Z,2.83
2019-03-23T10:07:37.275Z,2.20
2019-03-23T10:10:08.644Z,2.10
2019-03-23T10:12:39.890Z,1.97
2019-03-23T10:15:11.317Z,2.40
2019-03-23T10:17:42.434Z,2.00
2019-03-23T10:20:13.983Z,2.23
2019-03-23T10:22:45.046Z,2.27
2019-03-23T10:25:16.425Z,2.10
2019-03-23T10:27:50.609Z,1.90
2019-03-23T10:30:21.819Z,2.23
2019-03-23T10:32:53.270Z,2.43
2019-03-23T10:35:25.638Z,2.10
2019-03-23T10:37:56.834Z,2.20
2019-03-23T10:40:32.753Z,1.97
2019-03-23T10:43:01.245Z,1.83
2019-03-23T10:45:40.045Z,1.97
2019-03-23T10:48:06.830Z,1.83
2019-03-23T10:50:38.056Z,2.10
2019-03-23T10:53:09.844Z,1.90
2019-03-23T10:55:44.478Z,1.90
2019-03-23T10:58:16.326Z,2.03
2019-03-23T11:00:48.086Z,2.20
2019-03-23T11:03:19.422Z,2.23
2019-03-23T11:05:50.759Z,2.77
2019-03-23T11:08:22.203Z,2.33
2019-03-23T11:10:54.554Z,2.57
2019-03-23T11:13:26.231Z,2.20
2019-03-23T11:15:57.425Z,2.50
2019-03-23T11:18:28.714Z,2.43
2019-03-23T11:21:00.189Z,2.77
2019-03-23T11:23:31.731Z,2.33
2019-03-23T11:26:03.302Z,2.50
2019-03-23T11:28:34.595Z,2.45
2019-03-23T11:31:05.880Z,2.70
2019-03-23T11:33:37.424Z,3.25
2019-03-23T11:36:08.819Z,2.85
2019-03-23T11:38:40.066Z,2.80
2019-03-23T11:41:11.681Z,2.90
2019-03-23T11:43:42.898Z,2.50
2019-03-23T11:46:14.274Z,2.58
2019-03-23T11:48:47.471Z,2.72
2019-03-23T11:51:19.071Z,3.15
2019-03-23T11:53:50.458Z,3.70
2019-03-23T11:56:21.907Z,3.00
2019-03-23T11:58:54.081Z,2.62
2019-03-23T12:01:25.763Z,2.90
2019-03-23T12:03:56.947Z,2.30
2019-03-23T12:06:28.583Z,2.33
2019-03-23T12:09:00.318Z,2.50
2019-03-23T12:11:32.087Z,2.40
2019-03-23T12:14:03.383Z,2.17
2019-03-23T12:16:34.674Z,2.20
2019-03-23T12:19:06.216Z,1.90
2019-03-23T12:21:38.067Z,2.23
2019-03-23T12:24:09.532Z,2.10
2019-03-23T12:26:40.986Z,2.10
2019-03-23T12:29:12.530Z,1.80
2019-03-23T12:31:43.908Z,2.10
2019-03-23T12:34:14.935Z,1.87
2019-03-23T12:36:46.330Z,1.70
2019-03-23T12:39:18.034Z,1.70
2019-03-23T12:41:49.660Z,1.60
2019-03-23T12:44:21.080Z,1.67
2019-03-23T12:46:52.483Z,1.43
2019-03-23T12:49:23.674Z,1.90
2019-03-23T12:51:54.872Z,1.57
2019-03-23T12:54:25.945Z,1.60
2019-03-23T12:56:57.593Z,1.43
2019-03-23T12:59:29.021Z,1.60
2019-03-23T13:02:00.323Z,1.30
2019-03-23T13:04:31.926Z,1.53
2019-03-23T13:07:03.019Z,1.60
2019-03-23T13:09:34.340Z,1.50
2019-03-23T13:12:05.566Z,1.70
2019-03-23T13:14:37.036Z,1.50
2019-03-23T13:17:08.157Z,1.60
2019-03-23T13:19:39.455Z,1.60
2019-03-23T13:22:10.942Z,1.47
2019-03-23T13:24:42.181Z,1.50
2019-03-23T13:27:13.304Z,1.60
2019-03-23T13:29:45.734Z,1.30
2019-03-23T13:32:17.134Z,1.60
2019-03-23T13:34:48.744Z,1.40
2019-03-23T13:37:20.386Z,1.20
2019-03-23T13:39:51.822Z,1.80
2019-03-23T13:42:22.934Z,1.53
2019-03-23T13:44:54.084Z,1.73
2019-03-23T13:47:26.190Z,1.47
2019-03-23T13:49:57.593Z,1.70
2019-03-23T13:52:28.738Z,1.77
2019-03-23T13:55:01.974Z,1.73
2019-03-23T13:57:33.634Z,1.60
2019-03-23T14:00:05.268Z,1.73
2019-03-23T14:02:36.642Z,1.83
2019-03-23T14:05:15.643Z,2.10
2019-03-23T14:07:42.526Z,1.83
2019-03-23T14:10:14.090Z,1.50
2019-03-23T14:12:45.544Z,1.60
2019-03-23T14:15:16.824Z,1.60
2019-03-23T14:17:48.637Z,1.90
2019-03-23T14:20:20.398Z,1.60
2019-03-23T14:22:51.550Z,1.50
2019-03-23T14:25:22.514Z,1.70
2019-03-23T14:27:53.938Z,1.67
2019-03-23T14:30:25.193Z,1.53
2019-03-23T14:32:56.632Z,1.73
2019-03-23T14:35:27.702Z,1.83
2019-03-23T14:38:00.039Z,1.20
2019-03-23T14:40:31.514Z,1.83
2019-03-23T14:43:03.142Z,1.57
2019-03-23T14:45:37.005Z,1.70
2019-03-23T14:48:09.526Z,1.80
2019-03-23T14:50:42.652Z,1.23
2019-03-23T14:53:14.023Z,1.40
2019-03-23T14:55:47.189Z,1.60
2019-03-23T14:58:18.930Z,1.20
2019-03-23T15:00:50.706Z,1.50
2019-03-23T15:03:22.275Z,1.33
2019-03-23T15:05:53.857Z,1.30
2019-03-23T15:08:24.955Z,1.37
2019-03-23T15:10:56.324Z,1.30
2019-03-23T15:13:27.482Z,1.20
2019-03-23T15:15:58.934Z,1.00
2019-03-23T15:18:30.093Z,1.50
2019-03-23T15:21:01.628Z,1.40
2019-03-23T15:23:32.771Z,1.30
2019-03-23T15:26:04.296Z,1.13
2019-03-23T15:28:35.921Z,1.37
2019-03-23T15:31:07.416Z,1.17
2019-03-23T15:33:38.731Z,1.27
2019-03-23T15:36:10.236Z,0.87
2019-03-23T15:38:41.732Z,1.00
2019-03-23T15:41:12.891Z,0.90
2019-03-23T15:43:44.277Z,1.10
2019-03-23T15:46:15.659Z,0.90
2019-03-23T15:48:47.348Z,1.10
2019-03-23T15:51:19.113Z,1.10
2019-03-23T15:53:50.534Z,1.37
2019-03-23T15:56:21.558Z,1.00
2019-03-23T15:58:52.936Z,1.13
2019-03-23T16:01:24.394Z,1.07
2019-03-23T16:03:55.554Z,1.00
2019-03-23T16:06:26.707Z,1.07
2019-03-23T16:08:57.882Z,1.10
2019-03-23T16:11:30.163Z,1.00
2019-03-23T16:14:01.665Z,1.03
2019-03-23T16:16:33.058Z,1.07
2019-03-23T16:19:04.203Z,1.10
2019-03-23T16:21:35.503Z,1.20
2019-03-23T16:24:06.898Z,1.00
2019-03-23T16:26:38.067Z,1.10
2019-03-23T16:29:09.833Z,1.10
2019-03-23T16:31:41.019Z,0.97
2019-03-23T16:34:12.346Z,1.40
2019-03-23T16:36:43.578Z,1.40
2019-03-23T16:39:15.170Z,1.30
2019-03-23T16:41:46.959Z,1.30
2019-03-23T16:44:18.783Z,1.73
2019-03-23T16:46:50.219Z,1.43
2019-03-23T16:49:21.822Z,1.30
2019-03-23T16:51:53.423Z,1.20
2019-03-23T16:54:25.002Z,1.37
2019-03-23T16:56:56.659Z,1.47
2019-03-23T16:59:27.853Z,1.23
2019-03-23T17:01:59.315Z,1.50
2019-03-23T17:04:31.670Z,1.57
2019-03-23T17:07:05.330Z,1.40
2019-03-23T17:09:37.065Z,1.30
2019-03-23T17:12:08.950Z,1.43
2019-03-23T17:14:41.779Z,1.50
2019-03-23T17:17:13.462Z,1.40
2019-03-23T17:19:45.181Z,1.50
2019-03-23T17:22:16.755Z,1.17
2019-03-23T17:24:48.159Z,1.37
2019-03-23T17:27:19.892Z,1.30
2019-03-23T17:29:51.082Z,1.40
2019-03-23T17:32:22.291Z,1.27
2019-03-23T17:34:53.468Z,1.60
2019-03-23T17:37:24.922Z,1.63
2019-03-23T17:39:56.223Z,1.43
2019-03-23T17:42:27.446Z,1.67
2019-03-23T17:44:58.551Z,1.70
2019-03-23T17:47:30.181Z,1.70
2019-03-23T17:50:01.568Z,1.43
2019-03-23T17:52:32.910Z,1.73
2019-03-23T17:55:04.855Z,1.77
2019-03-23T17:57:36.604Z,2.00
2019-03-23T18:00:09.515Z,1.60
2019-03-23T18:02:42.084Z,1.50
2019-03-23T18:05:14.546Z,1.70
2019-03-23T18:07:46.031Z,1.33
2019-03-23T18:10:19.210Z,2.00
2019-03-23T18:12:51.766Z,1.43
2019-03-23T18:15:23.442Z,2.03
2019-03-23T18:17:55.078Z,1.70
2019-03-23T18:20:26.286Z,1.90
2019-03-23T18:22:57.722Z,1.50
2019-03-23T18:25:29.126Z,1.40
2019-03-23T18:28:01.485Z,1.50
2019-03-23T18:30:44.276Z,1.67
2019-03-23T18:33:15.995Z,1.20
2019-03-23T18:35:47.403Z,1.30
2019-03-23T18:38:18.757Z,1.33
2019-03-23T18:40:49.886Z,1.63
2019-03-23T18:43:27.456Z,1.60
2019-03-23T18:45:55.242Z,1.70
2019-03-23T18:48:26.660Z,1.50
2019-03-23T18:50:59.240Z,1.40
2019-03-23T18:53:31.006Z,1.60
2019-03-23T18:56:02.274Z,1.30
2019-03-23T18:58:34.905Z,1.20
2019-03-23T19:01:06.566Z,1.80
2019-03-23T19:03:40.493Z,1.60
2019-03-23T19:06:11.801Z,1.60
2019-03-23T19:08:43.192Z,1.40
2019-03-23T19:11:15.108Z,1.47
2019-03-23T19:13:46.596Z,1.50
2019-03-23T19:16:19.178Z,1.57
2019-03-23T19:18:51.525Z,1.50
2019-03-23T19:21:22.926Z,2.00
2019-03-23T19:23:54.066Z,1.63
2019-03-23T19:26:25.253Z,1.20
2019-03-23T19:28:56.355Z,1.63
2019-03-23T19:31:28.046Z,1.60
2019-03-23T19:33:59.259Z,1.60
2019-03-23T19:36:30.816Z,1.50
2019-03-23T19:39:01.884Z,1.77
2019-03-23T19:41:33.575Z,2.10
2019-03-23T19:44:05.227Z,1.90
2019-03-23T19:46:36.807Z,1.70
2019-03-23T19:49:09.227Z,1.80
2019-03-23T19:51:40.861Z,1.53
2019-03-23T19:54:12.385Z,1.40
2019-03-23T19:56:43.852Z,2.17
2019-03-23T19:59:17.747Z,2.00
2019-03-23T20:01:49.389Z,2.07
2019-03-23T20:04:20.832Z,1.77
2019-03-23T20:06:53.647Z,1.90
2019-03-23T20:09:25.041Z,1.67
2019-03-23T20:11:56.428Z,1.60
2019-03-23T20:14:27.639Z,1.70
2019-03-23T20:16:59.432Z,1.60
2019-03-23T20:19:30.794Z,1.57
2019-03-23T20:22:02.071Z,1.63
2019-03-23T20:24:33.480Z,1.30
2019-03-23T20:27:04.999Z,1.70
2019-03-23T20:29:36.266Z,1.80
2019-03-23T20:32:07.556Z,1.97
2019-03-23T20:34:39.034Z,1.60
2019-03-23T20:37:10.357Z,1.70
2019-03-23T20:39:41.858Z,1.70
2019-03-23T20:42:13.840Z,1.47
2019-03-23T20:44:45.114Z,1.60
2019-03-23T20:47:16.947Z,1.70
2019-03-23T20:49:48.713Z,1.87
2019-03-23T20:52:20.328Z,1.70
2019-03-23T20:54:51.781Z,1.60
2019-03-23T20:57:24.154Z,1.63
2019-03-23T20:59:57.132Z,1.50
2019-03-23T21:02:28.358Z,1.80
2019-03-23T21:04:59.743Z,1.37
2019-03-23T21:07:31.242Z,1.53
2019-03-23T21:10:02.642Z,1.20
2019-03-23T21:12:35.118Z,2.00
2019-03-23T21:15:07.203Z,1.40
2019-03-23T21:17:50.401Z,1.87
2019-03-23T21:20:11.516Z,1.67
2019-03-23T21:22:43.026Z,1.50
2019-03-23T21:25:14.892Z,1.40
2019-03-23T21:27:48.366Z,1.77
2019-03-23T21:30:21.234Z,1.30
2019-03-23T21:32:52.745Z,1.60
2019-03-23T21:35:24.236Z,1.50
2019-03-23T21:37:56.247Z,1.67
2019-03-23T21:40:28.234Z,1.50
2019-03-23T21:42:59.632Z,1.60
2019-03-23T21:45:30.950Z,1.30
2019-03-23T21:48:02.450Z,1.27
2019-03-23T21:50:33.978Z,1.50
2019-03-23T21:53:07.133Z,1.40
2019-03-23T21:55:39.798Z,1.27
2019-03-23T21:58:11.339Z,1.30
2019-03-23T22:00:42.777Z,1.53
2019-03-23T22:03:14.018Z,1.03
2019-03-23T22:05:46.773Z,1.13
2019-03-23T22:08:18.300Z,1.73
2019-03-23T22:10:49.806Z,1.30
2019-03-23T22:13:20.967Z,1.30
2019-03-23T22:15:52.441Z,1.27
2019-03-23T22:18:23.854Z,1.07
2019-03-23T22:20:55.027Z,1.07
2019-03-23T22:23:26.381Z,1.20
2019-03-23T22:25:58.107Z,1.47
2019-03-23T22:28:29.658Z,1.57
2019-03-23T22:31:00.746Z,0.90
2019-03-23T22:33:32.150Z,1.20
2019-03-23T22:36:03.688Z,1.20
2019-03-23T22:38:35.399Z,1.30
2019-03-23T22:41:07.107Z,1.00
2019-03-23T22:43:38.930Z,1.17
2019-03-23T22:46:10.138Z,1.10
2019-03-23T22:48:41.563Z,1.00
2019-03-23T22:51:12.742Z,1.10
2019-03-23T22:53:44.821Z,1.13
2019-03-23T22:56:16.490Z,1.07
2019-03-23T22:58:48.010Z,1.13
2019-03-23T23:01:19.228Z,0.90
2019-03-23T23:03:50.649Z,0.80
2019-03-23T23:06:22.080Z,0.80
2019-03-23T23:08:53.515Z,0.90
2019-03-23T23:11:24.647Z,0.93
2019-03-23T23:13:56.197Z,0.87
2019-03-23T23:16:27.266Z,1.00
2019-03-23T23:18:58.666Z,1.13
2019-03-23T23:21:30.109Z,0.80
2019-03-23T23:24:02.452Z,0.90
2019-03-23T23:26:34.018Z,0.90
2019-03-23T23:29:05.390Z,0.80
2019-03-23T23:31:36.582Z,0.90
2019-03-23T23:34:08.015Z,1.20
2019-03-23T23:36:39.613Z,1.10
2019-03-23T23:39:10.881Z,0.97
2019-03-23T23:41:42.108Z,1.00
2019-03-23T23:44:14.006Z,1.00
2019-03-23T23:46:45.588Z,0.90
2019-03-23T23:49:17.050Z,0.90
2019-03-23T23:51:50.539Z,0.90
2019-03-23T23:54:22.065Z,0.90
2019-03-23T23:56:53.551Z,1.03
2019-03-23T23:59:24.686Z,0.80
